Puunene, HI (96784)

10:33 AM HST on September 20, 2014 (GMT -1000)
Lower Kula | Change Station
CLOSE
Current Station
Personal Weather Station
Location: Kula, HI
Elevation: 2336 ft
Nearby Weather Stations

Elev 2336 ft 20.76 °N, 156.34 °W | Updated 3 minutes ago

Scattered Clouds
Scattered Clouds
76.5 °F
Feels Like 78 °F
N
5.0
Wind Variable Wind from WSW
Gusts 5.0 mph

Today
High -- | Low -- °F
--% Chance of Precip.
Yesterday
High -- | Low -- °F
Precip. -- in
6:13 AM 6:23 PM
Waning Crescent, 10% visible
Pressure 29.96 in
Visibility 10.0 miles
Clouds Scattered Clouds 2100 ft
Heat Index 78 °F
Dew Point 66 °F
Humidity 70%
Rainfall 0.00 in
Snow Depth Not available.
UV 6 out of 12
Pollen Not available.
Air Quality Not available.
Flu Activity Not available.
METAR PHNY 201956Z AUTO 16010G14KT 10SM SCT021 28/21 A3003 RMK AO2 TSNO T02770205 SLP143 $

More Conditions Fewer Conditions

Pressure 29.96 in
Visibility 10.0 miles
Clouds Scattered Clouds 2100 ft
Heat Index 78 °F
Dew Point 66 °F
Humidity 70%
Rainfall 0.00 in
Snow Depth Not available.
UV 6 out of 12
Pollen Not available.
Air Quality Not available.
Flu Activity Not available.
METAR PHNY 201956Z AUTO 16010G14KT 10SM SCT021 28/21 A3003 RMK AO2 TSNO T02770205 SLP143 $

More Conditions Fewer Conditions

10-Day Weather Forecast

Almanac

Astronomy

Sep. 20, 2014 Rise Set
Actual Time 6:13 AM HST 6:23 PM HST
Civil Twilight 5:51 AM HST 6:45 PM HST
Nautical Twilight 5:25 AM HST 7:11 PM HST
Astronomical Twilight 4:59 AM HST 7:36 PM HST
Moon 3:22 AM HST 4:16 PM HST
Length of Visible Light 12h 53m
Length of Day
12h 09m
Tomorrow will be 1m 11s shorter.
Waning Crescent, 10% of the Moon is Illuminated
Today
Waning Crescent
Sep 24
New
Oct 1
First Quarter
Oct 8
Full
Oct 15
Last Quarter

Today's Extremes

State Highs State Lows

Community

WunderPhotos

Upload Photos

1,754,937 photos uploaded!

WunderBlogs® & News

Nearby

Snow Depth

Station Depth Elevation
No new snow has been reported.

Earthquake Activity

City Distance Mag. Time & Date
No recent earthquake activity has been reported nearby.
Minimum magnitude displayed is 2.5.

Coastal Water Temperatures

Place Temperature
No Stations Reporting

Nearby Weather Stations